Time;durP1;ratioP1;P1;durP2;ratioP2;P2;SDS_P1;SDS_P2;PMS_P1;PMS_P2;Temp;Humidity;BMP_temperature;BMP_pressure;BME280_temperature;BME280_humidity;BME280_pressure;Samples;Min_cycle;Max_cycle;Signal;HPM_P1;HPM_P2
2022/05/15 00:02:02;;;;;;;9.80;5.55;;;;;;;11.50;76.54;99726.97;5005307;28;20080;-58
2022/05/15 00:04:27;;;;;;;13.85;6.10;;;;;;;11.56;77.09;99721.47;5005454;28;20030;-58
2022/05/15 00:06:53;;;;;;;11.73;5.60;;;;;;;11.59;75.97;99718.31;5005447;28;20475;-58
2022/05/15 00:09:19;;;;;;;12.10;5.50;;;;;;;11.56;76.71;99716.09;5005242;28;20045;-55
2022/05/15 00:11:44;;;;;;;13.77;5.45;;;;;;;11.52;76.66;99714.94;5004330;28;20037;-58
2022/05/15 00:14:10;;;;;;;10.00;5.38;;;;;;;11.48;77.31;99723.69;5004524;28;20172;-58
2022/05/15 00:16:36;;;;;;;14.63;5.60;;;;;;;11.37;77.01;99718.13;5000425;28;20026;-58
2022/05/15 00:19:01;;;;;;;9.85;5.72;;;;;;;11.27;77.27;99723.25;5005063;28;20040;-58
2022/05/15 00:21:27;;;;;;;15.07;6.30;;;;;;;11.29;77.56;99713.13;4986726;28;20114;-58
2022/05/15 00:23:52;;;;;;;12.75;6.05;;;;;;;11.15;78.15;99719.78;4976849;28;20026;-57
2022/05/15 00:26:18;;;;;;;11.93;6.05;;;;;;;11.24;78.65;99710.31;5005190;28;20025;-58
2022/05/15 00:28:44;;;;;;;10.85;5.78;;;;;;;11.11;78.04;99710.56;5005410;28;20034;-58
2022/05/15 00:31:09;;;;;;;14.82;6.95;;;;;;;10.98;78.85;99709.75;5005858;28;20169;-58
2022/05/15 00:33:35;;;;;;;12.73;5.90;;;;;;;11.12;78.22;99709.50;5005724;28;20158;-58
2022/05/15 00:36:01;;;;;;;14.13;6.22;;;;;;;11.20;78.22;99703.78;5005897;28;20091;-57
2022/05/15 00:38:26;;;;;;;15.25;5.78;;;;;;;11.16;79.38;99710.69;5004650;28;20026;-58
2022/05/15 00:40:52;;;;;;;13.98;6.30;;;;;;;11.12;78.63;99714.88;5005091;28;20080;-58
2022/05/15 00:43:44;;;;;;;14.27;6.60;;;;;;;11.17;78.39;99712.31;5004869;28;20558;-57
2022/05/15 00:46:13;;;;;;;18.45;7.15;;;;;;;11.15;78.63;99709.84;5005062;28;20061;-58
2022/05/15 00:48:39;;;;;;;12.38;6.68;;;;;;;11.34;78.03;99707.84;5005127;28;20610;-57
2022/05/15 00:51:35;;;;;;;15.07;6.13;;;;;;;11.28;77.72;99708.78;5005821;28;20034;-58
2022/05/15 00:54:10;;;;;;;15.38;7.90;;;;;;;11.04;79.17;99707.19;4986710;28;20046;-59
2022/05/15 00:56:37;;;;;;;14.77;6.68;;;;;;;11.10;78.72;99707.06;4984161;28;20069;-58
2022/05/15 00:59:10;;;;;;;13.07;7.32;;;;;;;11.07;79.64;99712.09;5003156;28;20061;-58
2022/05/15 01:01:35;;;;;;;13.95;7.20;;;;;;;11.12;79.02;99717.56;4971720;28;20053;-58
2022/05/15 01:04:01;;;;;;;18.83;6.82;;;;;;;11.10;79.55;99708.94;5005291;28;20030;-57
2022/05/15 01:06:27;;;;;;;18.20;7.50;;;;;;;11.17;78.57;99704.25;5004384;28;20022;-57
2022/05/15 01:08:53;;;;;;;14.80;7.55;;;;;;;11.18;78.61;99708.56;4971904;28;20063;-58
2022/05/15 01:11:18;;;;;;;18.23;8.02;;;;;;;11.11;78.85;99718.63;5006151;28;20030;-58
2022/05/15 01:13:44;;;;;;;13.85;6.53;;;;;;;11.06;78.87;99711.28;5002934;28;20109;-58
2022/05/15 01:16:09;;;;;;;11.20;6.38;;;;;;;10.76;79.42;99706.81;4976404;28;20035;-58
2022/05/15 01:18:36;;;;;;;20.02;7.78;;;;;;;10.71;80.41;99708.56;4970242;28;20113;-58
2022/05/15 01:21:04;;;;;;;12.45;6.90;;;;;;;10.67;81.05;99702.84;5004327;28;20026;-59
2022/05/15 01:23:30;;;;;;;17.05;7.63;;;;;;;10.79;80.74;99705.53;4979628;28;20030;-58
2022/05/15 01:25:57;;;;;;;14.55;7.20;;;;;;;10.74;80.65;99702.75;5004936;28;20027;-58
2022/05/15 01:28:24;;;;;;;15.13;6.85;;;;;;;10.70;80.74;99699.69;4988670;28;20030;-58
2022/05/15 01:30:52;;;;;;;16.15;7.05;;;;;;;10.71;81.61;99703.22;4980850;28;20871;-58
2022/05/15 01:33:17;;;;;;;14.77;7.75;;;;;;;10.57;81.14;99691.88;5004300;28;20030;-58
2022/05/15 01:35:43;;;;;;;17.38;7.93;;;;;;;10.56;81.27;99695.63;5004397;28;20030;-58
2022/05/15 01:38:08;;;;;;;16.83;7.07;;;;;;;10.38;82.02;99698.34;5003781;28;20306;-58
2022/05/15 01:40:34;;;;;;;12.27;6.97;;;;;;;10.38;82.49;99698.34;4981006;28;20100;-58
2022/05/15 01:43:03;;;;;;;17.80;8.15;;;;;;;10.36;82.71;99699.41;5005570;28;20053;-59
2022/05/15 01:45:29;;;;;;;17.60;7.78;;;;;;;10.50;82.02;99691.16;5004358;28;20053;-58
2022/05/15 01:47:55;;;;;;;13.45;7.55;;;;;;;10.45;82.66;99689.16;4986836;28;20397;-57
2022/05/15 01:50:20;;;;;;;17.70;8.30;;;;;;;10.57;81.99;99695.38;5004370;28;20772;-58
2022/05/15 01:52:46;;;;;;;18.00;8.38;;;;;;;10.57;81.96;99690.00;4986887;28;20022;-58
2022/05/15 01:55:12;;;;;;;15.43;7.93;;;;;;;10.57;82.63;99695.38;5005211;28;20350;-58
2022/05/15 01:57:37;;;;;;;12.98;7.35;;;;;;;10.51;81.67;99690.94;5008006;28;20032;-59
2022/05/15 02:00:06;;;;;;;14.35;6.90;;;;;;;10.34;81.71;99689.97;5008168;28;20029;-59
2022/05/15 02:02:31;;;;;;;13.07;7.43;;;;;;;10.17;82.70;99694.31;5008640;28;20427;-58
2022/05/15 02:04:57;;;;;;;17.55;7.97;;;;;;;10.32;83.09;99700.91;5006814;28;20460;-58
2022/05/15 02:07:22;;;;;;;19.65;8.63;;;;;;;10.35;82.00;99684.38;5007417;28;20037;-58
2022/05/15 02:09:48;;;;;;;15.73;9.25;;;;;;;10.24;82.83;99681.66;5008135;28;20113;-58
2022/05/15 02:12:14;;;;;;;16.30;8.38;;;;;;;10.21;83.29;99688.28;5005139;28;20109;-58
2022/05/15 02:14:39;;;;;;;15.55;7.60;;;;;;;10.17;83.33;99686.28;5005867;28;20503;-58
2022/05/15 02:17:05;;;;;;;21.00;9.35;;;;;;;10.14;83.53;99680.34;5007794;28;20036;-58
2022/05/15 02:19:30;;;;;;;17.08;8.13;;;;;;;10.30;82.80;99670.84;5008431;28;20022;-58
2022/05/15 02:21:56;;;;;;;20.13;9.30;;;;;;;10.42;82.22;99678.09;5007056;28;20040;-58
2022/05/15 02:24:21;;;;;;;18.05;8.45;;;;;;;10.42;81.71;99678.91;5007664;28;20064;-58
2022/05/15 02:26:47;;;;;;;15.05;8.02;;;;;;;10.38;82.08;99683.09;5006209;28;20064;-58
2022/05/15 02:29:13;;;;;;;16.13;8.52;;;;;;;10.31;82.61;99677.03;4987996;28;20038;-57
2022/05/15 02:31:38;;;;;;;24.40;8.68;;;;;;;10.29;82.56;99689.84;5006414;28;20068;-57
2022/05/15 02:34:04;;;;;;;18.15;8.65;;;;;;;10.23;82.40;99696.06;5007245;28;20101;-57
2022/05/15 02:36:29;;;;;;;13.85;7.45;;;;;;;9.99;81.68;99689.84;5007918;28;20026;-57
2022/05/15 02:38:55;;;;;;;18.75;8.75;;;;;;;9.93;83.35;99692.38;4989011;28;21135;-57
2022/05/15 02:41:21;;;;;;;16.60;10.60;;;;;;;9.84;84.03;99687.56;5007788;28;20113;-58
2022/05/15 02:43:46;;;;;;;16.38;10.15;;;;;;;9.89;84.04;99685.84;4989663;28;20033;-56
2022/05/15 02:46:12;;;;;;;13.10;8.30;;;;;;;9.85;83.89;99689.19;5009830;28;20129;-57
2022/05/15 02:51:21;;;;;;;19.10;8.15;;;;;;;9.71;83.96;99686.69;5006194;28;20109;-57
2022/05/15 02:53:47;;;;;;;18.23;8.85;;;;;;;9.75;85.01;99687.06;5005976;28;20034;-57
2022/05/15 02:56:21;;;;;;;16.25;8.02;;;;;;;9.69;84.27;99688.78;5005624;28;20044;-58
2022/05/15 02:58:47;;;;;;;15.65;9.48;;;;;;;9.66;84.55;99691.06;4990762;28;20026;-58
2022/05/15 03:01:13;;;;;;;14.25;8.60;;;;;;;9.44;84.43;99693.41;5007412;28;20027;-57
2022/05/15 03:03:38;;;;;;;20.42;9.15;;;;;;;9.37;85.42;99687.31;5006217;28;20060;-57
2022/05/15 03:06:05;;;;;;;22.42;9.43;;;;;;;9.41;86.32;99693.84;4988628;28;20041;-57
2022/05/15 03:08:35;;;;;;;15.35;7.95;;;;;;;9.35;85.96;99684.03;5005031;28;20021;-58
2022/05/15 03:11:01;;;;;;;19.05;10.07;;;;;;;9.53;86.92;99689.38;5006256;28;20028;-57
2022/05/15 03:13:26;;;;;;;15.20;10.02;;;;;;;9.49;85.49;99683.66;4973777;28;20030;-57
2022/05/15 03:15:55;;;;;;;21.05;10.15;;;;;;;9.60;87.85;99687.44;5001488;28;20480;-57
2022/05/15 03:18:21;;;;;;;14.23;10.00;;;;;;;9.55;86.29;99684.63;5006771;28;20113;-57
2022/05/15 03:20:46;;;;;;;16.25;9.18;;;;;;;9.55;86.05;99694.50;4989780;28;20121;-57
2022/05/15 03:23:15;;;;;;;17.83;8.95;;;;;;;9.33;83.22;99697.63;5006700;28;20491;-57
2022/05/15 03:25:41;;;;;;;14.80;8.93;;;;;;;9.19;83.95;99696.97;4983407;28;20042;-57
2022/05/15 03:28:09;;;;;;;17.98;9.57;;;;;;;9.03;85.42;99698.34;5005408;28;20482;-57
2022/05/15 03:30:36;;;;;;;23.95;12.93;;;;;;;8.90;86.99;99686.97;4989709;28;20033;-57
2022/05/15 03:33:02;;;;;;;20.90;12.00;;;;;;;9.21;88.13;99692.22;5007239;28;20348;-58
2022/05/15 03:35:28;;;;;;;20.73;10.63;;;;;;;9.33;87.09;99686.13;5004850;28;20034;-57
2022/05/15 03:37:53;;;;;;;16.63;10.93;;;;;;;9.40;85.82;99686.88;5005217;28;20057;-57
2022/05/15 03:40:19;;;;;;;19.05;10.63;;;;;;;9.32;86.04;99689.84;5003675;28;20025;-57
2022/05/15 03:42:44;;;;;;;14.38;9.13;;;;;;;9.37;86.24;99692.66;5005519;28;20113;-57
2022/05/15 03:45:10;;;;;;;18.50;9.32;;;;;;;9.26;85.02;99692.38;5005020;28;20396;-57
2022/05/15 03:47:38;;;;;;;16.20;9.15;;;;;;;9.30;85.31;99690.06;4988497;28;20034;-57
2022/05/15 03:50:07;;;;;;;17.55;9.55;;;;;;;9.39;84.76;99674.53;4990272;28;20451;-56
2022/05/15 03:52:34;;;;;;;17.10;9.80;;;;;;;9.36;83.37;99674.97;5007087;28;20080;-57
2022/05/15 03:55:00;;;;;;;13.25;8.60;;;;;;;9.62;82.63;99669.31;5005265;28;20294;-57
2022/05/15 03:57:25;;;;;;;16.15;9.15;;;;;;;10.14;79.99;99668.81;5004047;28;20022;-57
2022/05/15 03:59:51;;;;;;;17.42;9.48;;;;;;;10.41;78.74;99657.69;5005342;28;20033;-57
2022/05/15 04:02:16;;;;;;;12.95;8.25;;;;;;;10.91;76.81;99665.34;5006773;28;20117;-57
2022/05/15 04:04:42;;;;;;;13.73;8.10;;;;;;;11.49;73.91;99679.72;5005108;28;20042;-57
2022/05/15 04:07:07;;;;;;;13.27;7.70;;;;;;;12.22;70.18;99681.66;5003063;28;20026;-57
2022/05/15 04:09:33;;;;;;;15.75;8.40;;;;;;;12.60;69.34;99676.63;5003915;28;20032;-57
2022/05/15 04:11:59;;;;;;;12.93;8.05;;;;;;;12.43;68.97;99682.00;5007126;28;20160;-57
2022/05/15 04:14:24;;;;;;;19.02;8.25;;;;;;;12.95;68.26;99673.66;5005729;28;20022;-57
2022/05/15 04:16:50;;;;;;;15.35;8.00;;;;;;;13.11;67.39;99680.91;5005435;28;20373;-57
2022/05/15 04:19:16;;;;;;;18.38;8.38;;;;;;;13.27;66.57;99676.56;4997061;28;20464;-57
2022/05/15 04:21:41;;;;;;;16.48;8.10;;;;;;;14.35;63.66;99680.44;5005446;28;20365;-56
2022/05/15 04:24:08;;;;;;;11.60;7.13;;;;;;;14.80;62.01;99682.75;4988220;28;20089;-57
2022/05/15 04:26:34;;;;;;;12.75;7.07;;;;;;;14.59;62.01;99692.56;5002063;28;20503;-57
2022/05/15 04:28:59;;;;;;;13.27;6.65;;;;;;;13.78;66.18;99687.19;5000867;28;20034;-57
2022/05/15 04:31:25;;;;;;;13.95;7.20;;;;;;;15.39;61.39;99684.44;5005244;28;20439;-57
2022/05/15 04:33:51;;;;;;;12.27;7.05;;;;;;;16.29;57.98;99691.50;4988037;28;20060;-57
2022/05/15 04:36:16;;;;;;;10.63;6.00;;;;;;;16.41;56.80;99691.25;5004932;28;20033;-57
2022/05/15 04:38:42;;;;;;;12.38;6.72;;;;;;;15.04;58.38;99693.16;5004944;28;20132;-57
2022/05/15 04:41:07;;;;;;;11.73;6.38;;;;;;;15.45;57.97;99694.22;5005384;28;20033;-57
2022/05/15 04:43:33;;;;;;;13.75;6.22;;;;;;;15.97;57.40;99700.63;5004583;28;20476;-57
2022/05/15 04:45:58;;;;;;;11.85;6.30;;;;;;;17.77;52.17;99706.69;5003115;28;20046;-57
2022/05/15 04:48:24;;;;;;;10.00;5.60;;;;;;;17.73;51.67;99709.16;5005004;28;20014;-57
2022/05/15 04:50:50;;;;;;;11.77;5.40;;;;;;;17.61;51.13;99716.81;5001684;28;20029;-57
2022/05/15 04:53:15;;;;;;;12.73;6.15;;;;;;;18.16;49.88;99712.22;5006456;28;20109;-57
2022/05/15 04:55:41;;;;;;;11.18;5.70;;;;;;;18.90;48.09;99704.91;5005343;28;20347;-57
2022/05/15 04:58:06;;;;;;;8.95;5.32;;;;;;;19.64;46.52;99709.28;5003794;28;20132;-58
2022/05/15 05:00:32;;;;;;;8.60;5.63;;;;;;;19.59;47.02;99715.56;5005635;28;20542;-57
2022/05/15 05:02:58;;;;;;;13.57;5.50;;;;;;;19.52;46.92;99715.13;4984770;28;20037;-57
2022/05/15 05:05:23;;;;;;;10.57;5.68;;;;;;;19.25;47.86;99718.44;4988271;28;20065;-57
2022/05/15 05:07:49;;;;;;;12.63;5.30;;;;;;;19.37;46.96;99719.66;5004703;28;20018;-57
2022/05/15 05:10:15;;;;;;;14.70;6.07;;;;;;;18.00;50.22;99725.06;5005129;28;20034;-57
2022/05/15 05:12:40;;;;;;;11.02;6.00;;;;;;;17.68;51.87;99728.16;5004974;28;20120;-57
2022/05/15 05:15:07;;;;;;;12.23;6.72;;;;;;;19.09;48.76;99726.72;5004667;28;20030;-58
2022/05/15 05:17:32;;;;;;;14.98;6.80;;;;;;;20.09;46.06;99715.25;5004364;28;20213;-57
2022/05/15 05:19:58;;;;;;;12.93;6.78;;;;;;;20.68;44.67;99735.63;5005113;28;20469;-58
2022/05/15 05:22:24;;;;;;;13.63;6.85;;;;;;;21.08;44.57;99733.31;5004042;28;20113;-58
2022/05/15 05:24:49;;;;;;;13.65;6.13;;;;;;;21.20;43.52;99741.81;5005118;28;20045;-57
2022/05/15 05:27:15;;;;;;;12.35;5.60;;;;;;;20.66;45.13;99737.81;5007449;28;20028;-58
2022/05/15 05:29:41;;;;;;;13.75;6.00;;;;;;;21.15;44.18;99739.19;4975320;28;20121;-57
2022/05/15 05:32:07;;;;;;;12.15;5.40;;;;;;;21.86;42.88;99747.09;5008392;28;20057;-58
2022/05/15 05:34:32;;;;;;;12.77;5.60;;;;;;;21.92;43.35;99743.19;5007972;28;20496;-57
2022/05/15 05:36:58;;;;;;;11.40;5.22;;;;;;;21.59;44.10;99739.75;5009103;28;20088;-57
2022/05/15 05:39:29;;;;;;;10.68;5.40;;;;;;;22.34;42.02;99736.53;5008776;28;20508;-58
2022/05/15 05:41:57;;;;;;;13.88;5.53;;;;;;;22.30;42.00;99748.38;5009288;28;20022;-57
2022/05/15 05:44:24;;;;;;;10.65;5.30;;;;;;;21.23;44.50;99735.75;5007487;28;20091;-58
2022/05/15 05:46:49;;;;;;;15.05;5.43;;;;;;;21.58;43.77;99732.69;5008675;28;20168;-58
2022/05/15 05:49:15;;;;;;;13.45;5.18;;;;;;;21.81;43.00;99730.84;5008338;28;20464;-57
2022/05/15 05:51:41;;;;;;;13.63;5.32;;;;;;;23.55;40.63;99732.13;5006296;28;20089;-58
2022/05/15 05:54:06;;;;;;;10.48;5.00;;;;;;;22.69;41.69;99735.97;5006174;28;20056;-58
2022/05/15 05:56:32;;;;;;;15.73;5.07;;;;;;;23.17;41.27;99738.09;5007899;28;20050;-58
2022/05/15 05:58:58;;;;;;;18.25;5.43;;;;;;;24.14;39.63;99742.75;5006047;28;20112;-58
2022/05/15 06:01:23;;;;;;;11.73;6.00;;;;;;;23.81;40.01;99738.53;4994201;28;20025;-57
2022/05/15 06:06:33;;;;;;;11.48;5.43;;;;;;;22.16;44.39;99743.72;5003095;28;20052;-57
2022/05/15 06:08:58;;;;;;;10.57;5.60;;;;;;;22.53;43.65;99744.53;4989978;28;20025;-58
2022/05/15 06:11:29;;;;;;;14.13;6.20;;;;;;;22.55;44.12;99741.50;5007242;28;20018;-58
2022/05/15 06:13:55;;;;;;;12.07;5.90;;;;;;;22.64;43.21;99747.03;5007310;28;20034;-57
2022/05/15 06:16:20;;;;;;;8.80;5.80;;;;;;;23.27;41.60;99742.47;5005207;28;20120;-57
2022/05/15 06:18:46;;;;;;;10.10;5.80;;;;;;;24.04;40.51;99744.69;5009184;28;20551;-57
2022/05/15 06:21:13;;;;;;;12.25;5.50;;;;;;;23.18;41.52;99737.75;5007610;28;20030;-57
2022/05/15 06:23:38;;;;;;;10.80;5.47;;;;;;;23.02;41.97;99739.28;5007306;28;20112;-57
2022/05/15 06:26:04;;;;;;;17.10;6.18;;;;;;;21.74;44.84;99733.97;4973638;28;20125;-57
2022/05/15 06:28:30;;;;;;;11.07;5.97;;;;;;;21.07;47.05;99737.16;5008188;28;20024;-57
2022/05/15 06:30:56;;;;;;;11.73;6.13;;;;;;;21.08;46.91;99736.03;5006814;28;20022;-57
2022/05/15 06:33:21;;;;;;;12.88;6.30;;;;;;;21.85;45.17;99735.38;4989343;28;20033;-57
2022/05/15 06:35:47;;;;;;;11.35;6.53;;;;;;;23.06;42.81;99731.25;5007504;28;20469;-57
2022/05/15 06:38:12;;;;;;;11.82;6.30;;;;;;;21.60;45.10;99731.28;5007985;28;20022;-56
2022/05/15 06:40:38;;;;;;;11.20;6.45;;;;;;;22.13;44.48;99732.63;5007341;28;20117;-57
2022/05/15 06:43:06;;;;;;;10.32;6.03;;;;;;;22.43;44.46;99733.88;5008087;28;20034;-58
2022/05/15 06:45:32;;;;;;;12.98;6.25;;;;;;;22.65;44.24;99730.34;5007001;28;20085;-57
2022/05/15 06:47:58;;;;;;;12.20;6.95;;;;;;;22.61;44.07;99735.63;5007937;28;20512;-57
2022/05/15 06:50:24;;;;;;;12.20;6.40;;;;;;;22.64;44.01;99733.38;5006638;28;20320;-58
2022/05/15 06:52:49;;;;;;;14.05;6.20;;;;;;;23.23;43.27;99734.88;5006652;28;20026;-57
2022/05/15 06:55:17;;;;;;;15.77;6.63;;;;;;;22.82;44.17;99724.19;4968450;28;20037;-57
2022/05/15 06:57:43;;;;;;;12.75;6.30;;;;;;;23.07;44.31;99732.91;5005958;28;20037;-58
2022/05/15 07:00:20;;;;;;;12.48;6.32;;;;;;;25.56;39.27;99736.44;5007567;28;20113;-57
2022/05/15 07:02:46;;;;;;;12.63;6.10;;;;;;;24.62;39.97;99728.94;5005584;28;20029;-59
2022/05/15 07:05:14;;;;;;;12.50;6.28;;;;;;;25.02;38.86;99731.44;5006238;28;20038;-57
2022/05/15 07:07:40;;;;;;;12.45;6.13;;;;;;;24.24;40.81;99729.56;5007224;28;20038;-57
2022/05/15 07:10:06;;;;;;;12.50;6.15;;;;;;;24.11;41.52;99735.97;5007080;28;20022;-57
2022/05/15 07:12:32;;;;;;;12.07;6.43;;;;;;;24.97;39.49;99740.66;5008092;28;20029;-57
2022/05/15 07:14:57;;;;;;;12.00;6.38;;;;;;;24.45;40.26;99737.13;5006533;28;20029;-57
2022/05/15 07:17:23;;;;;;;11.10;5.55;;;;;;;23.60;41.57;99740.19;4988931;28;20026;-57
2022/05/15 07:19:49;;;;;;;12.13;6.45;;;;;;;23.27;43.22;99729.63;5005437;28;20025;-57
2022/05/15 07:22:14;;;;;;;15.23;6.10;;;;;;;24.43;41.14;99731.16;5006098;28;20354;-57
2022/05/15 07:24:40;;;;;;;14.45;6.03;;;;;;;24.28;41.32;99733.25;5005278;28;20124;-57
2022/05/15 07:27:06;;;;;;;13.35;5.90;;;;;;;24.31;41.45;99731.81;5006551;28;20052;-57
2022/05/15 07:29:36;;;;;;;16.33;6.10;;;;;;;24.64;41.48;99725.88;5006576;28;20025;-58
2022/05/15 07:32:02;;;;;;;11.35;5.90;;;;;;;23.59;43.48;99724.91;5006579;28;20068;-57
2022/05/15 07:34:28;;;;;;;12.02;5.90;;;;;;;22.97;44.92;99732.03;5005334;28;20030;-57
2022/05/15 07:36:54;;;;;;;16.10;6.32;;;;;;;24.42;42.33;99719.41;5002624;28;20046;-57
2022/05/15 07:39:20;;;;;;;11.90;6.05;;;;;;;24.60;41.46;99720.22;5004912;28;20120;-57
2022/05/15 07:41:45;;;;;;;18.38;5.80;;;;;;;25.30;40.39;99725.56;5005935;28;20037;-57
2022/05/15 07:44:11;;;;;;;12.20;5.40;;;;;;;25.08;39.76;99724.63;5004126;28;20030;-57
2022/05/15 07:46:37;;;;;;;13.07;5.78;;;;;;;26.21;38.81;99726.06;4956422;28;20054;-57
2022/05/15 07:49:03;;;;;;;11.90;5.13;;;;;;;25.52;39.51;99732.75;5005359;28;20030;-57
2022/05/15 07:51:31;;;;;;;13.23;5.10;;;;;;;26.47;38.58;99732.13;5004848;28;20105;-57
2022/05/15 07:53:56;;;;;;;16.00;5.60;;;;;;;25.73;39.74;99727.31;4999483;28;20033;-57
2022/05/15 07:56:22;;;;;;;13.30;5.45;;;;;;;24.54;41.63;99727.03;5006456;28;20037;-57
2022/05/15 07:58:49;;;;;;;12.57;5.43;;;;;;;26.30;38.86;99729.53;5005497;28;20136;-57
2022/05/15 08:01:14;;;;;;;11.23;5.30;;;;;;;25.05;40.97;99725.31;5006195;28;20037;-57
2022/05/15 08:03:43;;;;;;;14.90;5.50;;;;;;;25.39;40.31;99723.63;5004947;28;20037;-56
2022/05/15 08:08:53;;;;;;;11.05;4.90;;;;;;;24.41;41.61;99711.50;5008022;28;20076;-57
2022/05/15 08:11:19;;;;;;;11.27;4.70;;;;;;;23.99;42.38;99712.00;5007540;28;20034;-57
2022/05/15 08:13:44;;;;;;;11.25;4.40;;;;;;;23.17;44.18;99708.81;5005547;28;20030;-57
2022/05/15 08:16:11;;;;;;;10.88;4.97;;;;;;;24.21;42.22;99710.22;5002398;28;20196;-57
2022/05/15 08:24:05;;;;;;;11.30;4.97;;;;;;;24.46;42.19;99697.69;5004239;28;20515;-58
2022/05/15 08:26:30;;;;;;;13.63;4.60;;;;;;;25.43;40.52;99705.34;5005848;28;20030;-62
2022/05/15 08:28:57;;;;;;;11.07;4.47;;;;;;;25.02;40.41;99695.81;5004043;28;20514;-56
2022/05/15 08:31:24;;;;;;;14.63;4.80;;;;;;;24.59;39.78;99693.97;5012894;28;20056;-56
2022/05/15 08:33:49;;;;;;;11.70;3.90;;;;;;;22.38;44.11;99704.75;5004971;28;20029;-56
2022/05/15 08:36:15;;;;;;;11.63;3.92;;;;;;;24.05;41.46;99694.28;5005735;28;20098;-56
2022/05/15 08:38:43;;;;;;;9.75;3.60;;;;;;;24.54;41.46;99688.66;5005992;28;20026;-59
2022/05/15 08:41:31;;;;;;;10.75;3.53;;;;;;;24.18;39.63;99686.22;4985161;28;20042;-56
2022/05/15 08:44:14;;;;;;;7.78;3.38;;;;;;;22.46;43.05;99691.47;4988469;28;20060;-57
2022/05/15 08:46:49;;;;;;;11.73;3.80;;;;;;;23.54;40.88;99678.53;4987962;28;20038;-56
2022/05/15 08:49:50;;;;;;;8.65;3.20;;;;;;;22.51;42.98;99685.88;5003460;28;20105;-57
2022/05/15 08:52:43;;;;;;;9.80;3.78;;;;;;;22.79;43.11;99683.84;4969753;28;20438;-57
2022/05/15 08:55:35;;;;;;;8.85;3.63;;;;;;;22.21;44.23;99682.78;5004592;28;20396;-56
2022/05/15 08:58:01;;;;;;;9.05;3.67;;;;;;;23.20;42.94;99683.56;5004445;28;20470;-57
2022/05/15 09:00:32;;;;;;;10.80;4.80;;;;;;;23.96;40.66;99687.16;4987901;28;20137;-58
2022/05/15 09:03:18;;;;;;;9.20;3.50;;;;;;;23.94;40.46;99681.22;5008760;28;20034;-57
2022/05/15 09:06:22;;;;;;;8.93;3.70;;;;;;;25.68;38.01;99687.13;4992398;28;20030;-57
2022/05/15 09:09:06;;;;;;;11.23;3.63;;;;;;;24.00;40.30;99680.75;5008072;28;20022;-57
2022/05/15 09:12:06;;;;;;;8.13;3.42;;;;;;;25.94;37.63;99683.44;5004515;28;20037;-57
2022/05/15 09:15:00;;;;;;;9.68;3.40;;;;;;;25.05;38.52;99680.63;5002965;28;20453;-57
2022/05/15 09:17:49;;;;;;;10.45;3.58;;;;;;;23.31;42.99;99680.56;5009518;28;20148;-57
2022/05/15 09:20:38;;;;;;;9.15;3.33;;;;;;;25.43;39.78;99674.34;5009120;28;20022;-57
2022/05/15 09:23:07;;;;;;;;;;;;;;;24.82;39.67;99660.88;4987012;28;20038;-56
2022/05/15 09:25:34;;;;;;;11.90;3.65;;;;;;;24.58;39.02;99664.16;5005948;28;19928;-57
2022/05/15 09:28:07;;;;;;;14.52;3.92;;;;;;;24.41;39.99;99675.91;5009979;28;20084;-56
2022/05/15 09:30:45;;;;;;;8.15;3.20;;;;;;;25.52;37.94;99675.13;4991188;28;20099;-57
2022/05/15 09:33:28;;;;;;;8.73;3.17;;;;;;;25.40;37.66;99678.56;4978559;28;20030;-56
2022/05/15 09:36:25;;;;;;;9.38;3.47;;;;;;;25.78;37.73;99669.47;5008225;28;20038;-57
2022/05/15 09:39:09;;;;;;;7.38;3.35;;;;;;;27.21;35.04;99671.91;5008189;28;20121;-57
2022/05/15 09:44:35;;;;;;;9.18;3.83;;;;;;;27.30;35.79;99663.53;5007933;28;20104;-56
2022/05/15 09:47:32;;;;;;;9.70;4.18;;;;;;;25.28;37.39;99673.78;5004214;28;20046;-57
2022/05/15 09:49:58;;;;;;;9.10;3.30;;;;;;;24.83;38.73;99657.78;4986575;28;20437;-56
2022/05/15 09:52:31;;;;;;;8.40;3.20;;;;;;;25.11;37.34;99658.19;4990451;28;20030;-57
2022/05/15 09:55:18;;;;;;;9.10;3.70;;;;;;;24.36;39.41;99648.66;4991519;28;20136;-57
2022/05/15 09:57:57;;;;;;;10.43;3.03;;;;;;;26.65;35.29;99653.09;5003104;28;20038;-56
2022/05/15 10:00:25;;;;;;;11.30;3.70;;;;;;;26.10;35.66;99647.94;4975882;28;20041;-57
2022/05/15 10:02:52;;;;;;;9.07;3.47;;;;;;;25.60;36.99;99644.88;5006976;28;20030;-56
2022/05/15 10:05:31;;;;;;;6.10;3.20;;;;;;;24.50;38.13;99646.59;5006673;28;20025;-57
2022/05/15 10:08:21;;;;;;;8.30;3.20;;;;;;;24.24;39.03;99649.34;4990999;28;20030;-56
2022/05/15 10:10:56;;;;;;;7.00;3.00;;;;;;;23.39;39.46;99645.03;5004242;28;20045;-56
2022/05/15 10:13:34;;;;;;;9.90;3.00;;;;;;;24.65;38.00;99637.84;4988501;28;20037;-56
2022/05/15 10:16:23;;;;;;;9.85;3.10;;;;;;;23.13;39.31;99633.22;5007668;28;20038;-57
2022/05/15 10:18:51;;;;;;;;;;;;;;;23.27;38.79;99630.38;4988902;28;20106;-57
2022/05/15 10:21:16;;;;;;;8.13;2.78;;;;;;;24.55;36.79;99619.03;5006912;28;19961;-56
2022/05/15 10:23:48;;;;;;;7.80;2.58;;;;;;;23.72;38.29;99613.72;4972573;28;20028;-57
2022/05/15 10:26:23;;;;;;;10.70;2.95;;;;;;;24.54;37.61;99614.69;4985322;28;20492;-57
2022/05/15 10:28:54;;;;;;;8.45;2.80;;;;;;;24.57;36.54;99614.03;4986791;28;20057;-56
2022/05/15 10:31:25;;;;;;;9.95;3.10;;;;;;;24.37;36.63;99615.50;4984509;28;20643;-56
2022/05/15 10:34:12;;;;;;;10.07;2.88;;;;;;;24.33;37.15;99618.06;5008845;28;20036;-56
2022/05/15 10:36:37;;;;;;;10.65;3.78;;;;;;;24.39;37.63;99609.66;5007085;28;20052;-56
2022/05/15 10:39:14;;;;;;;8.63;2.70;;;;;;;24.02;37.06;99612.00;5007399;28;20026;-56
2022/05/15 10:41:56;;;;;;;8.20;2.70;;;;;;;23.29;38.05;99608.97;5007408;28;20061;-56
2022/05/15 10:44:30;;;;;;;7.70;2.60;;;;;;;23.58;36.90;99603.72;5001444;28;20030;-57
2022/05/15 10:46:59;;;;;;;6.55;2.63;;;;;;;24.07;37.02;99609.09;5006599;28;20100;-57
2022/05/15 10:49:33;;;;;;;7.95;2.70;;;;;;;22.94;37.46;99604.19;4973484;28;20022;-61
2022/05/15 10:52:01;;;;;;;5.82;2.83;;;;;;;23.70;37.97;99592.16;5007374;28;20038;-57
2022/05/15 10:57:59;;;;;;;6.28;2.53;;;;;;;22.78;39.23;99581.09;4979449;28;20099;-56
2022/05/15 11:00:37;;;;;;;4.75;2.33;;;;;;;23.13;37.46;99581.25;5007497;28;20128;-57
2022/05/15 11:03:14;;;;;;;7.10;2.70;;;;;;;23.96;35.72;99580.41;5005189;28;20025;-58
2022/05/15 11:05:51;;;;;;;7.72;2.40;;;;;;;24.10;35.67;99589.25;5006792;28;20029;-57
2022/05/15 11:08:46;;;;;;;6.82;2.53;;;;;;;23.71;36.45;99574.59;5004547;28;20037;-56
2022/05/15 11:11:21;;;;;;;7.32;2.80;;;;;;;23.88;35.63;99569.16;4990079;28;20034;-57
2022/05/15 11:14:06;;;;;;;10.15;2.80;;;;;;;24.24;35.72;99559.78;5005772;28;20388;-57
2022/05/15 11:16:56;;;;;;;9.02;2.72;;;;;;;24.18;34.14;99565.72;5006868;28;20087;-56
2022/05/15 11:19:35;;;;;;;12.73;3.28;;;;;;;24.60;34.80;99565.97;5001537;28;20043;-57
2022/05/15 11:22:11;;;;;;;5.93;2.67;;;;;;;24.16;35.61;99551.56;5004361;28;20026;-56
2022/05/15 11:24:55;;;;;;;8.30;2.47;;;;;;;25.26;34.68;99549.06;4989782;28;20041;-56
2022/05/15 11:27:34;;;;;;;8.23;3.17;;;;;;;24.81;35.42;99560.56;5005868;28;20061;-56
2022/05/15 11:30:02;;;;;;;7.85;2.50;;;;;;;24.26;35.64;99553.94;5006660;28;20030;-58
2022/05/15 11:32:34;;;;;;;6.43;2.60;;;;;;;23.85;36.12;99558.03;4989771;28;20117;-58
2022/05/15 11:35:04;;;;;;;8.45;2.60;;;;;;;23.99;37.90;99546.91;5006436;28;20077;-58
2022/05/15 11:37:39;;;;;;;7.28;2.75;;;;;;;24.16;37.05;99543.34;5006026;28;20057;-57
2022/05/15 11:40:12;;;;;;;7.40;2.72;;;;;;;24.66;36.97;99550.97;5006369;28;20083;-57
2022/05/15 11:42:38;;;;;;;5.55;2.80;;;;;;;25.02;36.37;99533.22;5002612;28;20034;-57
2022/05/15 11:45:29;;;;;;;5.55;2.45;;;;;;;25.00;35.58;99547.25;5004969;28;20112;-57
2022/05/15 11:47:59;;;;;;;7.00;2.55;;;;;;;25.24;35.41;99546.69;5004350;28;20038;-57
2022/05/15 11:50:35;;;;;;;6.55;3.00;;;;;;;24.89;36.77;99535.06;5002654;28;20036;-57
2022/05/15 11:53:05;;;;;;;5.57;2.70;;;;;;;26.10;34.62;99538.88;4987041;28;20073;-57
2022/05/15 11:55:36;;;;;;;;;;;;;;;25.61;35.70;99528.47;4983356;28;20022;-57
2022/05/15 11:58:09;;;;;;;8.77;3.13;;;;;;;25.25;34.82;99525.53;5006218;28;19917;-57
2022/05/15 12:00:35;;;;;;;6.80;2.63;;;;;;;25.07;36.89;99536.56;5005598;28;20369;-56